DARK10 KDYS-KDYS
Flight info
| Callsign | DARK10 |
|---|---|
| Flight time | N/A |
| Altitude | 24000 |
| Route | ABI LANCER /D0100 BGS033012 IR128/D0100 MAF109060 SJT |
| Aircraft | B1/H-VGDW/C |
Departure
| Time | 2026-04-18 19:04 |
|---|---|
| Airport | Dyess Air Force Base (KDYS) |
Arrival
| Time | N/A |
|---|---|
| Airport | Dyess Air Force Base (KDYS) |
| Time | Latitude | Longitude | Altitude | Speed | Heading |
|---|---|---|---|---|---|
| 2026-04-18 18:49 | 32.40717 | -99.84540 | 1870 ft | 0 kts | 258° |
| 2026-04-18 18:58 | 32.40717 | -99.84541 | 1870 ft | 1 kts | 258° |
| 2026-04-18 18:58 | 32.40707 | -99.84585 | 1869 ft | 4 kts | 243° |
| 2026-04-18 18:58 | 32.40686 | -99.84597 | 1868 ft | 6 kts | 187° |
| 2026-04-18 18:58 | 32.40656 | -99.84628 | 1868 ft | 9 kts | 251° |
| 2026-04-18 18:59 | 32.40636 | -99.84726 | 1870 ft | 13 kts | 239° |
| 2026-04-18 18:59 | 32.40576 | -99.84736 | 1866 ft | 14 kts | 168° |
| 2026-04-18 18:59 | 32.40439 | -99.84704 | 1869 ft | 19 kts | 169° |
| 2026-04-18 18:59 | 32.40323 | -99.84739 | 1868 ft | 16 kts | 221° |
| 2026-04-18 19:00 | 32.40244 | -99.84806 | 1871 ft | 8 kts | 226° |
| 2026-04-18 19:00 | 32.40230 | -99.84868 | 1869 ft | 9 kts | 269° |
| 2026-04-18 19:00 | 32.40233 | -99.84887 | 1867 ft | 0 kts | 303° |
| 2026-04-18 19:02 | 32.40255 | -99.84927 | 1870 ft | 16 kts | 303° |
| 2026-04-18 19:02 | 32.40310 | -99.85040 | 1872 ft | 15 kts | 322° |
| 2026-04-18 19:03 | 32.40510 | -99.85096 | 1869 ft | 57 kts | 348° |
| 2026-04-18 19:03 | 32.41170 | -99.85250 | 1868 ft | 134 kts | 349° |
| 2026-04-18 19:03 | 32.42269 | -99.85539 | 2110 ft | 187 kts | 346° |
| 2026-04-18 19:04 | 32.45242 | -99.87179 | 3370 ft | 260 kts | 330° |
| 2026-04-18 19:04 | 32.46777 | -99.88377 | 4241 ft | 269 kts | 327° |
| 2026-04-18 19:04 | 32.48319 | -99.89740 | 5069 ft | 285 kts | 324° |
| 2026-04-18 19:04 | 32.49848 | -99.91311 | 5863 ft | 299 kts | 322° |
| 2026-04-18 19:05 | 32.51439 | -99.92915 | 6791 ft | 300 kts | 323° |
| 2026-04-18 19:05 | 32.54510 | -99.95963 | 8559 ft | 280 kts | 321° |
| 2026-04-18 19:05 | 32.56053 | -99.97442 | 9478 ft | 282 kts | 321° |
| 2026-04-18 19:06 | 32.57600 | -99.98877 | 10280 ft | 296 kts | 321° |
| 2026-04-18 19:06 | 32.61282 | -100.02025 | 11780 ft | 357 kts | 323° |
| 2026-04-18 19:06 | 32.63417 | -100.03751 | 12540 ft | 388 kts | 323° |
| 2026-04-18 19:07 | 32.65741 | -100.05585 | 13281 ft | 423 kts | 324° |
| 2026-04-18 19:07 | 32.68329 | -100.07524 | 14060 ft | 442 kts | 325° |
| 2026-04-18 19:07 | 32.70963 | -100.09415 | 14847 ft | 454 kts | 326° |
| 2026-04-18 19:07 | 32.73729 | -100.11329 | 15622 ft | 459 kts | 326° |
| 2026-04-18 19:08 | 32.76341 | -100.13123 | 16469 ft | 407 kts | 323° |
| 2026-04-18 19:08 | 32.78726 | -100.14790 | 17223 ft | 404 kts | 323° |
| 2026-04-18 19:08 | 32.81217 | -100.16534 | 18087 ft | 427 kts | 323° |
| 2026-04-18 19:08 | 32.83854 | -100.18351 | 18798 ft | 444 kts | 323° |
| 2026-04-18 19:09 | 32.86480 | -100.20085 | 19501 ft | 422 kts | 323° |
| 2026-04-18 19:09 | 32.89097 | -100.21837 | 20218 ft | 443 kts | 323° |
| 2026-04-18 19:09 | 32.91842 | -100.23690 | 20976 ft | 460 kts | 324° |
| 2026-04-18 19:09 | 32.94651 | -100.25549 | 21724 ft | 461 kts | 324° |
| 2026-04-18 19:10 | 32.97401 | -100.27359 | 22474 ft | 439 kts | 323° |
| 2026-04-18 19:10 | 33.00130 | -100.29191 | 23228 ft | 464 kts | 324° |
| 2026-04-18 19:10 | 33.03053 | -100.31132 | 23625 ft | 496 kts | 324° |
| 2026-04-18 19:10 | 33.06067 | -100.33106 | 23789 ft | 479 kts | 325° |
| 2026-04-18 19:11 | 33.08733 | -100.35187 | 23775 ft | 438 kts | 306° |
| 2026-04-18 19:11 | 33.10244 | -100.38265 | 23822 ft | 440 kts | 278° |
| 2026-04-18 19:11 | 33.10380 | -100.41852 | 23914 ft | 427 kts | 263° |
| 2026-04-18 19:11 | 33.10147 | -100.45407 | 23895 ft | 435 kts | 261° |
| 2026-04-18 19:12 | 33.09848 | -100.48882 | 23850 ft | 409 kts | 259° |
| 2026-04-18 19:12 | 33.09518 | -100.52211 | 23789 ft | 412 kts | 259° |
| 2026-04-18 19:12 | 33.09159 | -100.55632 | 23028 ft | 415 kts | 261° |
| 2026-04-18 19:12 | 33.08818 | -100.59047 | 22272 ft | 411 kts | 260° |
| 2026-04-18 19:13 | 33.08424 | -100.62396 | 21504 ft | 407 kts | 259° |
| 2026-04-18 19:13 | 33.08030 | -100.65734 | 20792 ft | 403 kts | 260° |
| 2026-04-18 19:13 | 33.07629 | -100.69030 | 20042 ft | 403 kts | 259° |
| 2026-04-18 19:13 | 33.07185 | -100.72323 | 19072 ft | 403 kts | 259° |
| 2026-04-18 19:14 | 33.06740 | -100.75655 | 18235 ft | 403 kts | 261° |
| 2026-04-18 19:14 | 33.06332 | -100.78892 | 17697 ft | 390 kts | 259° |
| 2026-04-18 19:14 | 33.05864 | -100.82010 | 17219 ft | 382 kts | 260° |
| 2026-04-18 19:14 | 33.05432 | -100.85051 | 17119 ft | 366 kts | 260° |
| 2026-04-18 19:15 | 33.04974 | -100.88046 | 17036 ft | 372 kts | 259° |
| 2026-04-18 19:15 | 33.04481 | -100.91241 | 16974 ft | 416 kts | 259° |
| 2026-04-18 19:15 | 33.03941 | -100.94749 | 16959 ft | 431 kts | 259° |
| 2026-04-18 19:15 | 33.03411 | -100.98358 | 16992 ft | 451 kts | 261° |
| 2026-04-18 19:16 | 33.02902 | -101.02078 | 16967 ft | 448 kts | 260° |
| 2026-04-18 19:16 | 33.02378 | -101.05594 | 16915 ft | 422 kts | 259° |
| 2026-04-18 19:16 | 33.01828 | -101.09115 | 16961 ft | 452 kts | 259° |
| 2026-04-18 19:16 | 33.01246 | -101.12806 | 16870 ft | 459 kts | 259° |
| 2026-04-18 19:17 | 33.00669 | -101.16548 | 16653 ft | 447 kts | 259° |
| 2026-04-18 19:17 | 33.00127 | -101.20102 | 16622 ft | 432 kts | 259° |
| 2026-04-18 19:17 | 32.99598 | -101.23584 | 16900 ft | 429 kts | 259° |
| 2026-04-18 19:17 | 32.99074 | -101.27089 | 16956 ft | 430 kts | 259° |
| 2026-04-18 19:18 | 32.98553 | -101.30595 | 16976 ft | 429 kts | 260° |
| 2026-04-18 19:18 | 32.98039 | -101.34076 | 16984 ft | 428 kts | 260° |
| 2026-04-18 19:18 | 32.97521 | -101.37592 | 16991 ft | 427 kts | 260° |
| 2026-04-18 19:18 | 32.97002 | -101.41103 | 16990 ft | 427 kts | 260° |
| 2026-04-18 19:19 | 32.96484 | -101.44631 | 16989 ft | 428 kts | 260° |
| 2026-04-18 19:19 | 32.95966 | -101.48160 | 16987 ft | 428 kts | 260° |
| 2026-04-18 19:19 | 32.95448 | -101.51684 | 16988 ft | 430 kts | 260° |
| 2026-04-18 19:19 | 32.94932 | -101.55203 | 16988 ft | 431 kts | 260° |
| 2026-04-18 19:20 | 32.94438 | -101.58575 | 17007 ft | 433 kts | 260° |
| 2026-04-18 19:20 | 32.93920 | -101.62106 | 17014 ft | 434 kts | 260° |
| 2026-04-18 19:20 | 32.93403 | -101.65629 | 17018 ft | 435 kts | 260° |
| 2026-04-18 19:20 | 32.92886 | -101.69160 | 17034 ft | 436 kts | 260° |
| 2026-04-18 19:21 | 32.92599 | -101.72665 | 17041 ft | 438 kts | 272° |
| 2026-04-18 19:21 | 32.93370 | -101.76135 | 17052 ft | 443 kts | 294° |
| 2026-04-18 19:21 | 32.95240 | -101.79029 | 17068 ft | 451 kts | 316° |
| 2026-04-18 19:21 | 32.97938 | -101.80941 | 17065 ft | 462 kts | 336° |
| 2026-04-18 19:22 | 33.01111 | -101.81604 | 17068 ft | 472 kts | 357° |
| 2026-04-18 19:22 | 33.04354 | -101.80908 | 17054 ft | 481 kts | 17° |
| 2026-04-18 19:22 | 33.07280 | -101.78903 | 17048 ft | 489 kts | 38° |
| 2026-04-18 19:22 | 33.09524 | -101.75812 | 17042 ft | 494 kts | 57° |
| 2026-04-18 19:23 | 33.11112 | -101.72154 | 17023 ft | 495 kts | 64° |
| 2026-04-18 19:23 | 33.12566 | -101.68386 | 17004 ft | 494 kts | 65° |
| 2026-04-18 19:23 | 33.13980 | -101.64602 | 16991 ft | 495 kts | 66° |
| 2026-04-18 19:23 | 33.15370 | -101.60819 | 16990 ft | 496 kts | 66° |
| 2026-04-18 19:24 | 33.16756 | -101.57012 | 16990 ft | 497 kts | 66° |
| 2026-04-18 19:24 | 33.18137 | -101.53198 | 16990 ft | 499 kts | 66° |
| 2026-04-18 19:24 | 33.19511 | -101.49398 | 16996 ft | 500 kts | 66° |
| 2026-04-18 19:24 | 33.20869 | -101.45578 | 16999 ft | 502 kts | 69° |
| 2026-04-18 19:25 | 33.21591 | -101.41574 | 16935 ft | 505 kts | 85° |
| 2026-04-18 19:25 | 33.21271 | -101.37469 | 16201 ft | 492 kts | 108° |
| 2026-04-18 19:25 | 33.19859 | -101.33808 | 15513 ft | 482 kts | 128° |
| 2026-04-18 19:25 | 33.17615 | -101.31001 | 14827 ft | 470 kts | 146° |
| 2026-04-18 19:26 | 33.15040 | -101.28722 | 14150 ft | 465 kts | 149° |
| 2026-04-18 19:26 | 33.12402 | -101.26525 | 13383 ft | 462 kts | 150° |
| 2026-04-18 19:26 | 33.09759 | -101.24394 | 12613 ft | 456 kts | 150° |
| 2026-04-18 19:26 | 33.07113 | -101.22325 | 11847 ft | 452 kts | 150° |
| 2026-04-18 19:27 | 33.04477 | -101.20318 | 11122 ft | 448 kts | 150° |
| 2026-04-18 19:27 | 33.01838 | -101.18358 | 10528 ft | 444 kts | 150° |
| 2026-04-18 19:27 | 32.99194 | -101.16436 | 10248 ft | 445 kts | 150° |
| 2026-04-18 19:27 | 32.96464 | -101.14480 | 10136 ft | 481 kts | 151° |
| 2026-04-18 19:28 | 32.93555 | -101.12436 | 10073 ft | 479 kts | 151° |
| 2026-04-18 19:28 | 32.90653 | -101.10405 | 10043 ft | 481 kts | 151° |
| 2026-04-18 19:28 | 32.87759 | -101.08371 | 10029 ft | 480 kts | 151° |
| 2026-04-18 19:28 | 32.84860 | -101.06329 | 10058 ft | 481 kts | 151° |
| 2026-04-18 19:29 | 32.81998 | -101.04314 | 10055 ft | 481 kts | 150° |
| 2026-04-18 19:29 | 32.79096 | -101.02275 | 10081 ft | 484 kts | 151° |
| 2026-04-18 19:29 | 32.76195 | -101.00235 | 10081 ft | 484 kts | 151° |
| 2026-04-18 19:29 | 32.73303 | -100.98200 | 10089 ft | 485 kts | 151° |
| 2026-04-18 19:30 | 32.70404 | -100.96165 | 10073 ft | 486 kts | 150° |
| 2026-04-18 19:30 | 32.67524 | -100.94125 | 10074 ft | 485 kts | 149° |
| 2026-04-18 19:30 | 32.64978 | -100.91526 | 10045 ft | 488 kts | 129° |
| 2026-04-18 19:30 | 32.63355 | -100.88021 | 10046 ft | 488 kts | 107° |
| 2026-04-18 19:31 | 32.62687 | -100.84111 | 10069 ft | 485 kts | 97° |
| 2026-04-18 19:31 | 32.62225 | -100.80157 | 10075 ft | 482 kts | 97° |
| 2026-04-18 19:31 | 32.61750 | -100.76210 | 10056 ft | 481 kts | 97° |
| 2026-04-18 19:31 | 32.61298 | -100.72276 | 10035 ft | 482 kts | 96° |
| 2026-04-18 19:32 | 32.60881 | -100.68326 | 10033 ft | 484 kts | 96° |
| 2026-04-18 19:32 | 32.60476 | -100.64371 | 10022 ft | 483 kts | 96° |
| 2026-04-18 19:32 | 32.60070 | -100.60415 | 10011 ft | 481 kts | 96° |
| 2026-04-18 19:32 | 32.59665 | -100.56463 | 9989 ft | 480 kts | 95° |
| 2026-04-18 19:33 | 32.59263 | -100.52512 | 9995 ft | 483 kts | 95° |
| 2026-04-18 19:33 | 32.58865 | -100.48562 | 9990 ft | 484 kts | 95° |
| 2026-04-18 19:33 | 32.58464 | -100.44602 | 9988 ft | 485 kts | 96° |
| 2026-04-18 19:33 | 32.58068 | -100.40654 | 9986 ft | 482 kts | 94° |
| 2026-04-18 19:34 | 32.58654 | -100.37046 | 7593 ft | 461 kts | 43° |
| 2026-04-18 19:34 | 32.61759 | -100.36674 | 5022 ft | 511 kts | 323° |
| 2026-04-18 19:34 | 32.64526 | -100.39315 | 4079 ft | 530 kts | 325° |
| 2026-04-18 19:34 | 32.67600 | -100.42069 | 3938 ft | 570 kts | 325° |
| 2026-04-18 19:35 | 32.70823 | -100.44969 | 3966 ft | 589 kts | 324° |
| 2026-04-18 19:35 | 32.74126 | -100.47968 | 3983 ft | 604 kts | 324° |
| 2026-04-18 19:35 | 32.77493 | -100.51012 | 3995 ft | 612 kts | 324° |
| 2026-04-18 19:35 | 32.80900 | -100.54069 | 4002 ft | 613 kts | 325° |
| 2026-04-18 19:36 | 32.84320 | -100.57106 | 4021 ft | 613 kts | 325° |
| 2026-04-18 19:36 | 32.87664 | -100.60085 | 4011 ft | 612 kts | 325° |
| 2026-04-18 19:36 | 32.91056 | -100.63143 | 4019 ft | 612 kts | 324° |
| 2026-04-18 19:36 | 32.94453 | -100.66215 | 4031 ft | 613 kts | 324° |
| 2026-04-18 19:37 | 32.97813 | -100.69238 | 4020 ft | 614 kts | 324° |
| 2026-04-18 19:37 | 33.01201 | -100.72269 | 4013 ft | 614 kts | 325° |
| 2026-04-18 19:37 | 33.04651 | -100.75341 | 4006 ft | 614 kts | 325° |
| 2026-04-18 19:37 | 33.08073 | -100.78400 | 4008 ft | 614 kts | 324° |
| 2026-04-18 19:38 | 33.11485 | -100.81463 | 4007 ft | 615 kts | 325° |
| 2026-04-18 19:38 | 33.14912 | -100.84520 | 4014 ft | 616 kts | 325° |
| 2026-04-18 19:38 | 33.18360 | -100.87573 | 4002 ft | 616 kts | 325° |
| 2026-04-18 19:38 | 33.21480 | -100.91046 | 3625 ft | 617 kts | 309° |
| 2026-04-18 19:39 | 33.23214 | -100.95681 | 3023 ft | 620 kts | 279° |
| 2026-04-18 19:39 | 33.23004 | -101.00769 | 2974 ft | 616 kts | 258° |
| 2026-04-18 19:39 | 33.21381 | -101.05473 | 3061 ft | 611 kts | 243° |
| 2026-04-18 19:39 | 33.19414 | -101.09938 | 3042 ft | 602 kts | 244° |
| 2026-04-18 19:40 | 33.17656 | -101.14505 | 3032 ft | 608 kts | 248° |
| 2026-04-18 19:40 | 33.16027 | -101.19128 | 3018 ft | 605 kts | 248° |
| 2026-04-18 19:40 | 33.14337 | -101.23625 | 3004 ft | 606 kts | 245° |
| 2026-04-18 19:40 | 33.12472 | -101.28229 | 3000 ft | 605 kts | 244° |
| 2026-04-18 19:41 | 33.10627 | -101.32744 | 2999 ft | 603 kts | 245° |
| 2026-04-18 19:41 | 33.08839 | -101.37254 | 2996 ft | 603 kts | 246° |
| 2026-04-18 19:41 | 33.07083 | -101.41790 | 2990 ft | 603 kts | 246° |
| 2026-04-18 19:41 | 33.05304 | -101.46324 | 2990 ft | 604 kts | 246° |
| 2026-04-18 19:42 | 33.03509 | -101.50789 | 3161 ft | 601 kts | 245° |
| 2026-04-18 19:42 | 33.01727 | -101.55282 | 3433 ft | 597 kts | 246° |
| 2026-04-18 19:42 | 32.99973 | -101.59773 | 3483 ft | 599 kts | 246° |
| 2026-04-18 19:42 | 32.98213 | -101.64279 | 3530 ft | 599 kts | 246° |
| 2026-04-18 19:43 | 32.96437 | -101.68774 | 3629 ft | 601 kts | 246° |
| 2026-04-18 19:43 | 32.94653 | -101.73274 | 3637 ft | 602 kts | 246° |
| 2026-04-18 19:43 | 32.92867 | -101.77793 | 3648 ft | 604 kts | 246° |
| 2026-04-18 19:43 | 32.91044 | -101.82288 | 3681 ft | 596 kts | 236° |
| 2026-04-18 19:44 | 32.87482 | -101.84332 | 3566 ft | 593 kts | 173° |
| 2026-04-18 19:44 | 32.84115 | -101.81882 | 3580 ft | 580 kts | 123° |
| 2026-04-18 19:44 | 32.82276 | -101.72750 | 3487 ft | 573 kts | 97° |
| 2026-04-18 19:45 | 32.81678 | -101.68067 | 3525 ft | 574 kts | 97° |
| 2026-04-18 19:45 | 32.81115 | -101.63352 | 3490 ft | 574 kts | 96° |
| 2026-04-18 19:45 | 32.80542 | -101.58660 | 3488 ft | 576 kts | 97° |
| 2026-04-18 19:45 | 32.79938 | -101.53950 | 3490 ft | 577 kts | 96° |
| 2026-04-18 19:46 | 32.79301 | -101.49240 | 3508 ft | 578 kts | 97° |
| 2026-04-18 19:46 | 32.78664 | -101.44522 | 3489 ft | 578 kts | 97° |
| 2026-04-18 19:46 | 32.78249 | -101.41389 | 3482 ft | 578 kts | 97° |
| 2026-04-18 19:46 | 32.77631 | -101.36674 | 3482 ft | 578 kts | 97° |
| 2026-04-18 19:47 | 32.77018 | -101.31958 | 3490 ft | 577 kts | 97° |
| 2026-04-18 19:47 | 32.76413 | -101.27232 | 3507 ft | 577 kts | 96° |
| 2026-04-18 19:47 | 32.75813 | -101.22521 | 3508 ft | 578 kts | 97° |
| 2026-04-18 19:47 | 32.74988 | -101.16255 | 3533 ft | 579 kts | 97° |
| 2026-04-18 19:48 | 32.74568 | -101.13065 | 3529 ft | 579 kts | 97° |
| 2026-04-18 19:48 | 32.73956 | -101.08350 | 3560 ft | 577 kts | 97° |
| 2026-04-18 19:48 | 32.73350 | -101.03641 | 3567 ft | 577 kts | 97° |
| 2026-04-18 19:48 | 32.72733 | -100.98931 | 3589 ft | 578 kts | 97° |
| 2026-04-18 19:49 | 32.72104 | -100.94217 | 3586 ft | 578 kts | 97° |
| 2026-04-18 19:49 | 32.71492 | -100.89562 | 3587 ft | 580 kts | 96° |
| 2026-04-18 19:49 | 32.70889 | -100.84817 | 3591 ft | 580 kts | 96° |
| 2026-04-18 19:49 | 32.70285 | -100.80079 | 3579 ft | 580 kts | 96° |
| 2026-04-18 19:50 | 32.69665 | -100.75344 | 3567 ft | 581 kts | 96° |
| 2026-04-18 19:50 | 32.69044 | -100.70612 | 3575 ft | 581 kts | 97° |
| 2026-04-18 19:50 | 32.68419 | -100.65871 | 3539 ft | 581 kts | 97° |
| 2026-04-18 19:50 | 32.67808 | -100.61125 | 3508 ft | 581 kts | 97° |
| 2026-04-18 19:51 | 32.67213 | -100.56383 | 3504 ft | 581 kts | 97° |
| 2026-04-18 19:51 | 32.66634 | -100.51628 | 3502 ft | 581 kts | 96° |
| 2026-04-18 19:51 | 32.66051 | -100.46890 | 3507 ft | 581 kts | 96° |
| 2026-04-18 19:51 | 32.66447 | -100.42394 | 6087 ft | 527 kts | 60° |
| 2026-04-18 19:52 | 32.69091 | -100.39833 | 9833 ft | 487 kts | 7° |
| 2026-04-18 19:52 | 32.72085 | -100.40939 | 13062 ft | 459 kts | 304° |
| 2026-04-18 19:52 | 32.72981 | -100.44429 | 14507 ft | 433 kts | 273° |
| 2026-04-18 19:52 | 32.73202 | -100.47813 | 14792 ft | 399 kts | 272° |
| 2026-04-18 19:53 | 32.73373 | -100.50981 | 15219 ft | 363 kts | 270° |
| 2026-04-18 19:53 | 32.73498 | -100.53825 | 15806 ft | 331 kts | 271° |
| 2026-04-18 19:53 | 32.73793 | -100.58932 | 16049 ft | 293 kts | 272° |
| 2026-04-18 19:54 | 32.73968 | -100.61322 | 15802 ft | 288 kts | 272° |
| 2026-04-18 19:54 | 32.74129 | -100.63655 | 15646 ft | 281 kts | 272° |
| 2026-04-18 19:54 | 32.74282 | -100.65945 | 15472 ft | 275 kts | 272° |
| 2026-04-18 19:54 | 32.74437 | -100.68180 | 15322 ft | 269 kts | 272° |
| 2026-04-18 19:55 | 32.74591 | -100.70352 | 15046 ft | 268 kts | 272° |